createdAt,value
2019-01-15T00:00:18.382Z,2.50
2019-01-15T00:02:46.791Z,2.50
2019-01-15T00:05:15.566Z,2.50
2019-01-15T00:07:43.991Z,2.40
2019-01-15T00:10:12.539Z,2.40
2019-01-15T00:12:40.957Z,2.30
2019-01-15T00:15:11.081Z,2.30
2019-01-15T00:17:39.502Z,2.30
2019-01-15T00:20:13.059Z,2.30
2019-01-15T00:22:41.489Z,2.30
2019-01-15T00:25:10.240Z,2.20
2019-01-15T00:27:38.717Z,2.20
2019-01-15T00:30:18.021Z,2.20
2019-01-15T00:32:46.757Z,2.20
2019-01-15T00:35:15.226Z,2.20
2019-01-15T00:37:43.655Z,2.20
2019-01-15T00:40:14.965Z,2.20
2019-01-15T00:42:43.796Z,2.30
2019-01-15T00:45:12.947Z,2.30
2019-01-15T00:47:41.369Z,2.30
2019-01-15T00:50:13.010Z,2.30
2019-01-15T00:52:41.598Z,2.30
2019-01-15T00:55:11.564Z,2.40
2019-01-15T00:57:40.261Z,2.40
2019-01-15T01:00:17.371Z,2.40
2019-01-15T01:02:45.917Z,2.40
2019-01-15T01:05:15.472Z,2.40
2019-01-15T01:07:43.877Z,2.50
2019-01-15T01:10:14.933Z,2.40
2019-01-15T01:12:43.418Z,2.50
2019-01-15T01:15:14.423Z,2.50
2019-01-15T01:17:43.202Z,2.60
2019-01-15T01:20:14.718Z,2.70
2019-01-15T01:22:43.123Z,2.60
2019-01-15T01:25:13.696Z,2.70
2019-01-15T01:27:42.130Z,2.70
2019-01-15T01:30:16.739Z,2.70
2019-01-15T01:32:45.164Z,2.70
2019-01-15T01:35:13.817Z,2.70
2019-01-15T01:37:42.234Z,2.80
2019-01-15T01:40:13.291Z,2.70
2019-01-15T01:42:41.711Z,2.70
2019-01-15T01:45:12.175Z,2.70
2019-01-15T01:47:40.603Z,2.70
2019-01-15T01:50:11.115Z,2.70
2019-01-15T01:52:39.825Z,2.80
2019-01-15T01:55:10.776Z,2.70
2019-01-15T01:57:39.214Z,2.70
2019-01-15T02:00:10.713Z,2.70
2019-01-15T02:02:39.146Z,2.70
2019-01-15T02:05:07.720Z,2.70
2019-01-15T02:07:36.141Z,2.70
2019-01-15T02:10:07.694Z,2.70
2019-01-15T02:12:36.951Z,2.70
2019-01-15T02:15:09.041Z,2.70
2019-01-15T02:17:37.447Z,2.70
2019-01-15T02:20:08.930Z,2.70
2019-01-15T02:22:37.478Z,2.80
2019-01-15T02:25:07.979Z,2.80
2019-01-15T02:27:38.060Z,2.70
2019-01-15T02:30:09.555Z,2.70
2019-01-15T02:32:38.038Z,2.70
2019-01-15T02:35:06.954Z,2.60
2019-01-15T02:37:35.354Z,2.60
2019-01-15T02:40:06.485Z,2.60
2019-01-15T02:42:35.235Z,2.70
2019-01-15T02:45:05.307Z,2.60
2019-01-15T02:47:34.099Z,2.60
2019-01-15T02:50:02.512Z,2.70
2019-01-15T02:52:33.885Z,2.70
2019-01-15T02:55:02.310Z,2.60
2019-01-15T02:57:32.281Z,2.60
2019-01-15T03:00:00.686Z,2.60
2019-01-15T03:02:31.113Z,2.60
2019-01-15T03:05:02.526Z,2.60
2019-01-15T03:07:30.926Z,2.60
2019-01-15T03:09:59.361Z,2.60
2019-01-15T03:12:27.933Z,2.60
2019-01-15T03:14:56.686Z,2.60
2019-01-15T03:17:25.095Z,2.60
2019-01-15T03:19:53.526Z,2.60
2019-01-15T03:22:22.292Z,2.60
2019-01-15T03:24:51.047Z,2.60
2019-01-15T03:27:19.462Z,2.60
2019-01-15T03:29:47.871Z,2.60
2019-01-15T03:32:16.320Z,2.60
2019-01-15T03:34:44.823Z,2.60
2019-01-15T03:37:13.268Z,2.60
2019-01-15T03:39:41.728Z,2.60
2019-01-15T03:42:10.380Z,2.60
2019-01-15T03:44:38.783Z,2.60
2019-01-15T03:47:07.205Z,2.70
2019-01-15T03:49:35.881Z,2.70
2019-01-15T03:52:04.404Z,2.60
2019-01-15T03:54:32.796Z,2.60
2019-01-15T03:57:01.460Z,2.60
2019-01-15T03:59:29.882Z,2.60
2019-01-15T04:01:58.309Z,2.60
2019-01-15T04:04:26.712Z,2.60
2019-01-15T04:06:55.133Z,2.60
2019-01-15T04:09:24.005Z,2.60
2019-01-15T04:11:52.441Z,2.60
2019-01-15T04:14:20.872Z,2.60
2019-01-15T04:16:49.277Z,2.60
2019-01-15T04:19:17.725Z,2.60
2019-01-15T04:21:46.433Z,2.60
2019-01-15T04:24:14.840Z,2.60
2019-01-15T04:26:43.330Z,2.60
2019-01-15T04:29:11.733Z,2.60
2019-01-15T04:31:40.165Z,2.60
2019-01-15T04:34:08.621Z,2.60
2019-01-15T04:36:37.042Z,2.60
2019-01-15T04:39:07.394Z,2.60
2019-01-15T04:41:35.815Z,2.60
2019-01-15T04:44:04.634Z,2.60
2019-01-15T04:46:33.074Z,2.60
2019-01-15T04:49:02.788Z,2.60
2019-01-15T04:51:31.263Z,2.60
2019-01-15T04:53:59.668Z,2.70
2019-01-15T04:56:28.430Z,2.70
2019-01-15T04:58:56.830Z,2.70
2019-01-15T05:01:25.235Z,2.70
2019-01-15T05:03:53.663Z,2.80
2019-01-15T05:06:22.345Z,2.80
2019-01-15T05:08:50.777Z,2.80
2019-01-15T05:11:19.459Z,2.80
2019-01-15T05:13:47.889Z,2.90
2019-01-15T05:16:16.310Z,2.90
2019-01-15T05:18:44.720Z,2.90
2019-01-15T05:21:13.488Z,3.00
2019-01-15T05:23:42.203Z,3.00
2019-01-15T05:26:10.915Z,3.00
2019-01-15T05:28:39.635Z,3.00
2019-01-15T05:31:08.082Z,3.10
2019-01-15T05:33:36.500Z,3.10
2019-01-15T05:36:04.995Z,3.10
2019-01-15T05:38:33.429Z,3.10
2019-01-15T05:41:01.878Z,3.10
2019-01-15T05:43:35.501Z,3.20
2019-01-15T05:46:00.421Z,3.20
2019-01-15T05:48:29.287Z,3.20
2019-01-15T05:51:05.425Z,3.20
2019-01-15T05:53:33.824Z,3.20
2019-01-15T05:56:02.257Z,3.20
2019-01-15T05:58:30.661Z,3.30
2019-01-15T06:00:59.104Z,3.30
2019-01-15T06:03:27.520Z,3.30
2019-01-15T06:05:55.951Z,3.30
2019-01-15T06:08:24.362Z,3.30
2019-01-15T06:10:53.169Z,3.40
2019-01-15T06:13:21.578Z,3.40
2019-01-15T06:15:49.995Z,3.40
2019-01-15T06:18:18.398Z,3.50
2019-01-15T06:20:47.132Z,3.50
2019-01-15T06:23:15.645Z,3.50
2019-01-15T06:25:44.069Z,3.50
2019-01-15T06:28:12.482Z,3.60
2019-01-15T06:30:40.895Z,3.60
2019-01-15T06:33:09.308Z,3.70
2019-01-15T06:35:38.070Z,3.70
2019-01-15T06:38:06.622Z,3.70
2019-01-15T06:40:35.053Z,3.80
2019-01-15T06:43:03.899Z,3.80
2019-01-15T06:45:32.884Z,3.80
2019-01-15T06:48:01.382Z,3.80
2019-01-15T06:50:29.814Z,3.90
2019-01-15T06:52:58.235Z,3.90
2019-01-15T06:55:26.987Z,3.90
2019-01-15T06:57:55.715Z,3.90
2019-01-15T07:00:31.401Z,4.00
2019-01-15T07:03:00.092Z,4.00
2019-01-15T07:05:28.575Z,4.00
2019-01-15T07:07:57.131Z,4.00
2019-01-15T07:10:31.394Z,4.10
2019-01-15T07:12:59.928Z,4.10
2019-01-15T07:15:28.385Z,4.10
2019-01-15T07:17:57.137Z,4.10
2019-01-15T07:20:25.860Z,4.10
2019-01-15T07:22:54.292Z,4.20
2019-01-15T07:25:24.985Z,4.20
2019-01-15T07:27:53.426Z,4.20
2019-01-15T07:30:37.312Z,4.20
2019-01-15T07:33:07.023Z,4.30
2019-01-15T07:35:35.438Z,4.30
2019-01-15T07:38:04.130Z,4.40
2019-01-15T07:40:32.832Z,4.50
2019-01-15T07:43:01.268Z,4.50
2019-01-15T07:45:29.749Z,4.50
2019-01-15T07:47:59.946Z,4.50
2019-01-15T07:50:28.393Z,4.60
2019-01-15T07:52:57.106Z,4.60
2019-01-15T07:55:25.815Z,4.60
2019-01-15T07:57:54.234Z,4.60
2019-01-15T08:00:24.493Z,4.70
2019-01-15T08:02:54.622Z,4.70
2019-01-15T08:05:25.179Z,4.70
2019-01-15T08:07:53.637Z,4.60
2019-01-15T08:10:22.225Z,4.70
2019-01-15T08:12:50.930Z,4.70
2019-01-15T08:15:21.697Z,4.80
2019-01-15T08:17:50.353Z,4.80
2019-01-15T08:20:18.760Z,4.80
2019-01-15T08:22:47.484Z,4.80
2019-01-15T08:25:16.949Z,4.90
2019-01-15T08:27:45.443Z,5.00
2019-01-15T08:30:19.730Z,5.00
2019-01-15T08:32:48.397Z,5.00
2019-01-15T08:35:17.235Z,5.10
2019-01-15T08:37:45.667Z,5.20
2019-01-15T08:40:16.229Z,5.20
2019-01-15T08:42:44.972Z,5.20
2019-01-15T08:45:16.053Z,5.20
2019-01-15T08:47:46.348Z,5.20
2019-01-15T08:50:18.094Z,5.20
2019-01-15T08:52:46.694Z,5.20
2019-01-15T08:55:15.098Z,5.20
2019-01-15T08:57:43.554Z,5.20
2019-01-15T09:00:16.138Z,5.20
2019-01-15T09:02:44.625Z,5.20
2019-01-15T09:05:13.058Z,5.20
2019-01-15T09:07:41.717Z,5.30
2019-01-15T09:10:18.464Z,5.30
2019-01-15T09:12:47.878Z,5.40
2019-01-15T09:15:19.013Z,5.40
2019-01-15T09:17:47.497Z,5.40
2019-01-15T09:20:20.448Z,5.40
2019-01-15T09:22:49.228Z,5.50
2019-01-15T09:25:18.405Z,5.60
2019-01-15T09:27:46.805Z,5.60
2019-01-15T09:30:18.801Z,5.70
2019-01-15T09:32:47.281Z,5.80
2019-01-15T09:35:15.774Z,5.80
2019-01-15T09:37:45.366Z,5.70
2019-01-15T09:40:16.584Z,5.80
2019-01-15T09:42:45.429Z,5.80
2019-01-15T09:45:16.295Z,5.90
2019-01-15T09:48:02.103Z,5.90
2019-01-15T09:50:30.953Z,5.90
2019-01-15T09:53:01.031Z,5.90
2019-01-15T09:55:29.625Z,5.90
2019-01-15T09:57:58.164Z,5.90
2019-01-15T10:00:26.566Z,6.00
2019-01-15T10:02:55.050Z,6.10
2019-01-15T10:05:23.926Z,6.10
2019-01-15T10:07:52.410Z,6.10
2019-01-15T10:10:21.147Z,6.10
2019-01-15T10:12:49.878Z,6.10
2019-01-15T10:15:22.052Z,6.20
2019-01-15T10:17:50.765Z,6.20
2019-01-15T10:20:20.090Z,6.20
2019-01-15T10:22:49.230Z,6.20
2019-01-15T10:25:19.280Z,6.30
2019-01-15T10:27:49.621Z,6.30
2019-01-15T10:30:42.810Z,6.40
2019-01-15T10:33:23.349Z,6.40
2019-01-15T10:35:57.900Z,6.50
2019-01-15T10:38:28.561Z,6.50
2019-01-15T10:40:58.039Z,6.40
2019-01-15T10:43:27.444Z,6.50
2019-01-15T10:45:56.208Z,6.50
2019-01-15T10:48:25.093Z,6.40
2019-01-15T10:50:53.647Z,6.50
2019-01-15T10:53:22.147Z,6.50
2019-01-15T10:55:50.580Z,6.50
2019-01-15T10:58:19.003Z,6.50
2019-01-15T11:00:47.478Z,6.60
2019-01-15T11:03:15.909Z,6.60
2019-01-15T11:05:44.746Z,6.60
2019-01-15T11:08:13.327Z,6.70
2019-01-15T11:10:41.979Z,6.70
2019-01-15T11:13:10.789Z,6.80
2019-01-15T11:15:43.182Z,6.80
2019-01-15T11:18:09.366Z,6.80
2019-01-15T11:20:37.783Z,6.90
2019-01-15T11:23:06.366Z,6.90
2019-01-15T11:25:34.771Z,6.90
2019-01-15T11:28:03.545Z,6.90
2019-01-15T11:30:31.962Z,7.00
2019-01-15T11:33:00.389Z,7.10
2019-01-15T11:35:28.910Z,7.20
2019-01-15T11:37:57.579Z,7.20
2019-01-15T11:40:26.019Z,7.30
2019-01-15T11:42:54.442Z,7.30
2019-01-15T11:45:23.312Z,7.30
2019-01-15T11:47:52.073Z,7.20
2019-01-15T11:50:23.509Z,7.20
2019-01-15T11:52:51.962Z,7.30
2019-01-15T11:55:21.362Z,7.20
2019-01-15T11:57:49.959Z,7.10
2019-01-15T12:00:31.506Z,7.10
2019-01-15T12:03:01.929Z,7.10
2019-01-15T12:05:44.252Z,7.10
2019-01-15T12:08:23.050Z,7.00
2019-01-15T12:11:04.861Z,7.00
2019-01-15T12:13:51.489Z,7.00
2019-01-15T12:16:27.524Z,7.00
2019-01-15T12:19:13.157Z,7.00
2019-01-15T12:21:45.964Z,7.00
2019-01-15T12:24:18.987Z,7.00
2019-01-15T12:26:49.041Z,7.00
2019-01-15T12:29:21.521Z,7.00
2019-01-15T12:31:54.405Z,7.00
2019-01-15T12:34:33.798Z,7.00
2019-01-15T12:37:06.637Z,6.90
2019-01-15T12:39:36.691Z,7.00
2019-01-15T12:42:12.519Z,7.00
2019-01-15T12:44:48.125Z,7.00
2019-01-15T12:47:20.583Z,7.00
2019-01-15T12:50:02.670Z,7.00
2019-01-15T12:52:32.800Z,6.90
2019-01-15T12:55:08.942Z,6.90
2019-01-15T12:57:42.257Z,6.90
2019-01-15T13:00:15.183Z,6.90
2019-01-15T13:02:48.188Z,6.90
2019-01-15T13:05:18.513Z,6.90
2019-01-15T13:07:57.768Z,6.80
2019-01-15T13:10:28.119Z,6.90
2019-01-15T13:12:58.214Z,6.90
2019-01-15T13:15:44.523Z,6.90
2019-01-15T13:18:14.599Z,6.90
2019-01-15T13:20:44.660Z,6.90
2019-01-15T13:23:17.415Z,6.90
2019-01-15T13:25:47.490Z,6.90
2019-01-15T13:28:17.795Z,7.00
2019-01-15T13:30:53.610Z,7.00
2019-01-15T13:33:23.925Z,7.10
2019-01-15T13:35:53.968Z,7.00
2019-01-15T13:41:15.142Z,7.00
2019-01-15T13:43:50.934Z,7.00
2019-01-15T13:46:26.693Z,7.00
2019-01-15T13:48:57.074Z,6.90
2019-01-15T13:51:32.267Z,6.90
2019-01-15T13:54:08.503Z,6.90
2019-01-15T13:56:47.556Z,7.00
2019-01-15T13:59:20.549Z,7.10
2019-01-15T14:01:56.897Z,7.10
2019-01-15T14:04:36.213Z,7.10
2019-01-15T14:07:23.395Z,7.10
2019-01-15T14:09:59.867Z,7.00
2019-01-15T14:12:29.922Z,7.10
2019-01-15T14:15:00.009Z,7.10
2019-01-15T14:17:35.882Z,7.10
2019-01-15T14:20:27.119Z,7.10
2019-01-15T14:23:00.031Z,7.10
2019-01-15T14:25:36.038Z,7.10
2019-01-15T14:28:09.326Z,7.10
2019-01-15T14:30:55.171Z,7.00
2019-01-15T14:33:40.735Z,7.10
2019-01-15T14:36:27.510Z,7.00
2019-01-15T14:39:15.891Z,7.00
2019-01-15T14:42:02.510Z,7.10
2019-01-15T14:44:35.976Z,7.00
2019-01-15T14:47:06.651Z,7.00
2019-01-15T14:49:36.755Z,7.00
2019-01-15T14:52:10.983Z,7.00
2019-01-15T14:54:43.899Z,7.00
2019-01-15T14:57:19.833Z,7.00
2019-01-15T14:59:50.197Z,7.10
2019-01-15T15:02:38.311Z,7.10
2019-01-15T15:05:09.063Z,7.10
2019-01-15T15:07:47.970Z,7.10
2019-01-15T15:10:24.377Z,7.10
2019-01-15T15:13:12.623Z,7.10
2019-01-15T15:15:51.701Z,7.10
2019-01-15T15:18:21.751Z,7.10
2019-01-15T15:20:54.291Z,7.10
2019-01-15T15:23:29.874Z,7.10
2019-01-15T15:25:59.919Z,7.00
2019-01-15T15:28:32.703Z,7.10
2019-01-15T15:31:19.034Z,7.10
2019-01-15T15:33:57.547Z,7.10
2019-01-15T15:36:36.379Z,7.10
2019-01-15T15:39:25.059Z,7.10
2019-01-15T15:42:01.149Z,7.10
2019-01-15T15:44:31.269Z,7.10
2019-01-15T15:47:07.294Z,7.00
2019-01-15T15:49:43.478Z,7.10
2019-01-15T15:52:25.509Z,7.10
2019-01-15T15:55:04.665Z,7.10
2019-01-15T15:57:40.751Z,7.10
2019-01-15T16:00:29.050Z,7.10
2019-01-15T16:03:05.318Z,7.10
2019-01-15T16:05:47.177Z,7.10
2019-01-15T16:08:33.354Z,7.10
2019-01-15T16:11:11.000Z,7.10
2019-01-15T16:13:44.093Z,7.10
2019-01-15T16:16:19.047Z,7.00
2019-01-15T16:19:05.593Z,7.10
2019-01-15T16:21:35.668Z,7.00
2019-01-15T16:24:21.134Z,7.10
2019-01-15T16:26:57.120Z,7.10
2019-01-15T16:29:33.124Z,7.10
2019-01-15T16:32:03.179Z,7.10
2019-01-15T16:34:33.246Z,7.10
2019-01-15T16:37:15.387Z,7.10
2019-01-15T16:39:48.425Z,7.10
2019-01-15T16:42:24.214Z,7.10
2019-01-15T16:45:06.388Z,7.10
2019-01-15T16:47:36.570Z,7.10
2019-01-15T16:50:24.954Z,7.10
2019-01-15T16:53:11.578Z,7.10
2019-01-15T16:55:58.431Z,7.10
2019-01-15T16:58:40.268Z,7.10
2019-01-15T17:01:16.444Z,7.10
2019-01-15T17:03:49.166Z,7.10
2019-01-15T17:06:37.256Z,7.10
2019-01-15T17:09:09.687Z,7.20
2019-01-15T17:11:58.126Z,7.10
2019-01-15T17:14:43.129Z,7.20
2019-01-15T17:17:13.184Z,7.20
2019-01-15T17:19:49.037Z,7.20
2019-01-15T17:22:31.173Z,7.20
2019-01-15T17:25:01.264Z,7.20
2019-01-15T17:27:43.385Z,7.20
2019-01-15T17:30:15.884Z,7.20
2019-01-15T17:32:54.919Z,7.20
2019-01-15T17:35:41.414Z,7.20
2019-01-15T17:38:14.798Z,7.20
2019-01-15T17:40:56.836Z,7.10
2019-01-15T17:43:35.903Z,7.20
2019-01-15T17:46:21.509Z,7.20
2019-01-15T17:49:08.327Z,7.20
2019-01-15T17:51:38.371Z,7.20
2019-01-15T17:54:08.430Z,7.20
2019-01-15T17:56:38.497Z,7.20
2019-01-15T17:59:08.877Z,7.20
2019-01-15T18:01:38.943Z,7.10
2019-01-15T18:04:21.045Z,7.20
2019-01-15T18:06:51.403Z,7.20
2019-01-15T18:09:27.208Z,7.20
2019-01-15T18:12:00.177Z,7.10
2019-01-15T18:14:35.980Z,7.20
2019-01-15T18:17:12.254Z,7.10
2019-01-15T18:19:45.294Z,7.20
2019-01-15T18:22:15.444Z,7.20
2019-01-15T18:24:45.500Z,7.20
2019-01-15T18:27:18.902Z,7.20
2019-01-15T18:29:58.266Z,7.20
2019-01-15T18:32:31.111Z,7.20
2019-01-15T18:35:04.312Z,7.20
2019-01-15T18:37:34.660Z,7.20
2019-01-15T18:40:07.838Z,7.10
2019-01-15T18:42:40.881Z,7.20
2019-01-15T18:45:23.421Z,7.10
2019-01-15T18:47:56.821Z,7.20
2019-01-15T18:50:42.914Z,7.20
2019-01-15T18:53:15.952Z,7.10
2019-01-15T18:55:48.493Z,7.10
2019-01-15T18:58:30.939Z,7.10
2019-01-15T19:01:04.413Z,7.10
2019-01-15T19:03:34.468Z,7.10
2019-01-15T19:06:16.675Z,7.10
2019-01-15T19:08:49.207Z,7.10
2019-01-15T19:11:24.713Z,7.10
2019-01-15T19:13:54.771Z,7.10
2019-01-15T19:16:24.914Z,7.10
2019-01-15T19:19:03.852Z,7.10
2019-01-15T19:21:51.046Z,7.00
2019-01-15T19:24:24.191Z,6.90
2019-01-15T19:26:59.947Z,7.00
2019-01-15T19:29:38.870Z,6.90
2019-01-15T19:32:17.722Z,6.90
2019-01-15T19:35:05.891Z,6.90
2019-01-15T19:37:38.975Z,6.90
2019-01-15T19:40:12.945Z,6.90
2019-01-15T19:42:49.087Z,6.90
2019-01-15T19:45:35.810Z,6.90
2019-01-15T19:48:15.091Z,6.90
2019-01-15T19:50:45.384Z,6.90
2019-01-15T19:53:42.685Z,6.90
2019-01-15T19:56:15.874Z,6.90
2019-01-15T19:59:04.611Z,6.90
2019-01-15T20:01:52.701Z,7.00
2019-01-15T20:04:31.483Z,7.00
2019-01-15T20:07:10.315Z,7.00
2019-01-15T20:09:43.341Z,7.00
2019-01-15T20:12:29.330Z,7.00
2019-01-15T20:15:14.593Z,7.00
2019-01-15T20:17:50.518Z,7.10
2019-01-15T20:20:26.297Z,7.00
2019-01-15T20:22:56.347Z,7.00
2019-01-15T20:25:35.198Z,7.00
2019-01-15T20:28:23.866Z,7.10
2019-01-15T20:31:02.730Z,7.10
2019-01-15T20:33:33.051Z,7.10
2019-01-15T20:36:03.106Z,7.10
2019-01-15T20:38:41.732Z,7.10
2019-01-15T20:41:14.232Z,7.10
2019-01-15T20:44:00.879Z,7.10
2019-01-15T20:46:36.519Z,7.10
2019-01-15T20:49:09.662Z,7.10
2019-01-15T20:51:49.035Z,7.20
2019-01-15T20:54:19.109Z,7.20
2019-01-15T20:56:55.235Z,7.20
2019-01-15T20:59:34.195Z,7.30
2019-01-15T21:02:16.517Z,7.30
2019-01-15T21:04:49.530Z,7.30
2019-01-15T21:07:19.854Z,7.30
2019-01-15T21:09:58.643Z,7.30
2019-01-15T21:12:45.162Z,7.30
2019-01-15T21:15:23.635Z,7.40
2019-01-15T21:18:02.640Z,7.40
2019-01-15T21:20:35.286Z,7.40
2019-01-15T21:23:08.427Z,7.40
2019-01-15T21:25:38.479Z,7.40
2019-01-15T21:28:08.557Z,7.30
2019-01-15T21:30:38.679Z,7.40
2019-01-15T21:33:25.259Z,7.30
2019-01-15T21:36:11.915Z,7.20
2019-01-15T21:38:48.292Z,7.30
2019-01-15T21:41:36.463Z,7.30
2019-01-15T21:44:24.592Z,7.30
2019-01-15T21:46:54.631Z,7.30
2019-01-15T21:49:39.878Z,7.30
2019-01-15T21:52:26.009Z,7.30
2019-01-15T21:55:05.577Z,7.30
2019-01-15T21:57:45.030Z,7.30
2019-01-15T22:00:25.008Z,7.20
2019-01-15T22:02:57.775Z,7.20
2019-01-15T22:05:30.849Z,7.20
2019-01-15T22:08:17.539Z,7.20
2019-01-15T22:10:54.059Z,7.30
2019-01-15T22:13:27.089Z,7.30
2019-01-15T22:15:57.438Z,7.20
2019-01-15T22:18:39.761Z,7.20
2019-01-15T22:21:15.634Z,7.30
2019-01-15T22:24:02.349Z,7.30
2019-01-15T22:26:41.225Z,7.30
2019-01-15T22:29:11.346Z,7.20
2019-01-15T22:31:41.718Z,7.20
2019-01-15T22:34:20.540Z,7.20
2019-01-15T22:37:06.633Z,7.20
2019-01-15T22:39:51.746Z,7.30
2019-01-15T22:42:22.089Z,7.20
2019-01-15T22:44:52.171Z,7.20
2019-01-15T22:47:27.960Z,7.20
2019-01-15T22:49:58.314Z,7.20
2019-01-15T22:52:34.502Z,7.10
2019-01-15T22:55:04.566Z,7.10
2019-01-15T22:57:37.601Z,7.20
2019-01-15T23:00:31.329Z,7.20
2019-01-15T23:03:04.362Z,7.10
2019-01-15T23:05:34.432Z,7.10
2019-01-15T23:08:20.762Z,7.10
2019-01-15T23:10:53.762Z,7.10
2019-01-15T23:13:23.817Z,7.10
2019-01-15T23:15:54.227Z,7.10
2019-01-15T23:18:26.952Z,7.10
2019-01-15T23:21:12.665Z,7.10
2019-01-15T23:23:42.721Z,7.20
2019-01-15T23:26:29.222Z,7.10
2019-01-15T23:29:02.066Z,7.10
2019-01-15T23:31:50.446Z,7.20
2019-01-15T23:34:20.658Z,7.20
2019-01-15T23:36:50.729Z,7.20
2019-01-15T23:39:20.762Z,7.20
2019-01-15T23:42:06.070Z,7.20
2019-01-15T23:44:51.688Z,7.20
2019-01-15T23:47:24.391Z,7.30
2019-01-15T23:50:03.502Z,7.30
2019-01-15T23:52:33.572Z,7.30
2019-01-15T23:55:15.401Z,7.20
2019-01-15T23:57:54.968Z,7.30
